Missouri River (Missouri), Napolean (06894650)

StateMissouriLatestUnknown (73900 cfs)
RiverMissouri RiverRatingObservedEstimated
Updated2020-02-25 20:00 (58 minutes ago)Flood - The river is flooding. Obstacles can be treacherous or deadly. The river should be avoided at this stage for casual trips and definitely for the inexperienced. Trips should be attempted only with protective gear and equipment.Flood(none)(none)
Discharge73900 cfs (median: 60000 cfs)High - The river is high and potentially dangerous, especially for the young and / or inexperienced. Normal stream obstacles are sometimes difficult to navigate. Extended distances can be attempted, but canoe travel may not be advisable.High(none)(none)
Height11.19 feetGood - Conditions are ideal for a canoe or kayak. Boats typically will drag on fewer than one-quarter of riffles, if at all, and portages are unnecessary or rare. Normal float lengths can be attempted without a problem.Good(none)(none)
TrendRising (rising over 24 hours)Low - River is low but can still be floated. Some riffles are okay but most come with significant dragging and might need a portage. Float lengths should be reduced to accommodate low flow, dragging, and portages.Low(none)(none)
USGSExternal icon USGS Site (External icon Google Maps)Poor - River is too low to float comfortably. Most or all riffles will drag or must be portaged and some obstacles (such as slick shelf rock) cause undue problems. Avoid the river at this stage for casual paddling trips.Poor(none)(none)

Trending Data

Plot Image

Trips for Missouri River (Missouri), Napolean (06894650)

DateStartEndDistanceConditionDischargeHeightFishingDetails

A total of 0 rows are displayed.

Condition Descriptions

Fishing Conditions

Fish Species

Notes

Classic Trip List

The classic River Trips application is still available for use. It is updated with the new system using a data retrofit. It is no longer maintained. The original River Trips application is no longer updated (as of 1 Dec 2016) but can be checked for errors or for the condition of the data before it was converted to the new system.

Gauge Data Table

ObservationHeightDischargeMaximum
Discharge
Minimum
Discharge
Mean
Discharge
P05P10P20P25P50
(Median)
P75P80P90P95
2020-02-25 20:00 11.19 73900 74900 (2019) 40600 (2018) 58900 40600 42100 60000 74500 74900
2020-02-25 19:00 11.18 73800 74900 (2019) 40600 (2018) 58900 40600 42100 60000 74500 74900
2020-02-25 18:00 11.14 73500 74900 (2019) 40600 (2018) 58900 40600 42100 60000 74500 74900
2020-02-25 17:00 11.11 73300 74900 (2019) 40600 (2018) 58900 40600 42100 60000 74500 74900
2020-02-25 16:00 11.10 73200 74900 (2019) 40600 (2018) 58900 40600 42100 60000 74500 74900
2020-02-25 15:00 11.07 73000 74900 (2019) 40600 (2018) 58900 40600 42100 60000 74500 74900
2020-02-25 14:00 11.03 72700 74900 (2019) 40600 (2018) 58900 40600 42100 60000 74500 74900
2020-02-25 13:00 11.03 72700 74900 (2019) 40600 (2018) 58900 40600 42100 60000 74500 74900
2020-02-25 12:00 10.99 72400 74900 (2019) 40600 (2018) 58900 40600 42100 60000 74500 74900
2020-02-25 11:00 10.98 72300 74900 (2019) 40600 (2018) 58900 40600 42100 60000 74500 74900
2020-02-25 10:00 10.96 72200 74900 (2019) 40600 (2018) 58900 40600 42100 60000 74500 74900
2020-02-25 09:00 10.95 72100 74900 (2019) 40600 (2018) 58900 40600 42100 60000 74500 74900
2020-02-25 08:00 10.94 72100 74900 (2019) 40600 (2018) 58900 40600 42100 60000 74500 74900
2020-02-25 07:00 10.94 72100 74900 (2019) 40600 (2018) 58900 40600 42100 60000 74500 74900
2020-02-25 06:00 10.93 72000 74900 (2019) 40600 (2018) 58900 40600 42100 60000 74500 74900
2020-02-25 05:00 10.92 71900 74900 (2019) 40600 (2018) 58900 40600 42100 60000 74500 74900
2020-02-25 04:00 10.90 71800 74900 (2019) 40600 (2018) 58900 40600 42100 60000 74500 74900
2020-02-25 03:00 10.87 71500 74900 (2019) 40600 (2018) 58900 40600 42100 60000 74500 74900
2020-02-25 02:00 10.87 71500 74900 (2019) 40600 (2018) 58900 40600 42100 60000 74500 74900
2020-02-25 01:00 10.86 71500 74900 (2019) 40600 (2018) 58900 40600 42100 60000 74500 74900
2020-02-25 00:00 10.85 71400 74900 (2019) 40600 (2018) 58900 40600 42100 60000 74500 74900
2020-02-24 23:00 10.84 71300 76500 (2016) 40900 (2018) 58400 40900 42400 58100 74700 76500
2020-02-24 22:00 10.84 71300 76500 (2016) 40900 (2018) 58400 40900 42400 58100 74700 76500
2020-02-24 21:00 10.84 71300 76500 (2016) 40900 (2018) 58400 40900 42400 58100 74700 76500
2020-02-24 20:00 10.80 71000 76500 (2016) 40900 (2018) 58400 40900 42400 58100 74700 76500
2020-02-24 19:00 10.80 71000 76500 (2016) 40900 (2018) 58400 40900 42400 58100 74700 76500
2020-02-24 18:00 10.80 71000 76500 (2016) 40900 (2018) 58400 40900 42400 58100 74700 76500
2020-02-24 17:00 10.75 70700 76500 (2016) 40900 (2018) 58400 40900 42400 58100 74700 76500
2020-02-24 16:00 10.77 70800 76500 (2016) 40900 (2018) 58400 40900 42400 58100 74700 76500
2020-02-24 15:00 10.75 70700 76500 (2016) 40900 (2018) 58400 40900 42400 58100 74700 76500
2020-02-24 14:00 10.72 70500 76500 (2016) 40900 (2018) 58400 40900 42400 58100 74700 76500
2020-02-24 13:00 10.73 70500 76500 (2016) 40900 (2018) 58400 40900 42400 58100 74700 76500
2020-02-24 12:00 10.72 70500 76500 (2016) 40900 (2018) 58400 40900 42400 58100 74700 76500
2020-02-24 11:00 10.71 70400 76500 (2016) 40900 (2018) 58400 40900 42400 58100 74700 76500
2020-02-24 10:00 10.69 70200 76500 (2016) 40900 (2018) 58400 40900 42400 58100 74700 76500
2020-02-24 09:00 10.71 70400 76500 (2016) 40900 (2018) 58400 40900 42400 58100 74700 76500
2020-02-24 08:00 10.68 70200 76500 (2016) 40900 (2018) 58400 40900 42400 58100 74700 76500
2020-02-24 07:00 10.69 70200 76500 (2016) 40900 (2018) 58400 40900 42400 58100 74700 76500
2020-02-24 06:00 10.68 70200 76500 (2016) 40900 (2018) 58400 40900 42400 58100 74700 76500
2020-02-24 05:00 10.64 69900 76500 (2016) 40900 (2018) 58400 40900 42400 58100 74700 76500
2020-02-24 04:00 10.66 70000 76500 (2016) 40900 (2018) 58400 40900 42400 58100 74700 76500
2020-02-24 03:00 10.68 70200 76500 (2016) 40900 (2018) 58400 40900 42400 58100 74700 76500
2020-02-24 02:00 10.69 70200 76500 (2016) 40900 (2018) 58400 40900 42400 58100 74700 76500
2020-02-24 01:00 10.67 70100 76500 (2016) 40900 (2018) 58400 40900 42400 58100 74700 76500
2020-02-24 00:00 10.67 70100 76500 (2016) 40900 (2018) 58400 40900 42400 58100 74700 76500
2020-02-23 23:00 10.67 70100 80600 (2016) 40800 (2018) 55100 40800 42300 49400 73500 80600
2020-02-23 22:00 10.67 70100 80600 (2016) 40800 (2018) 55100 40800 42300 49400 73500 80600
2020-02-23 21:00 10.67 70100 80600 (2016) 40800 (2018) 55100 40800 42300 49400 73500 80600
2020-02-23 20:00 10.68 70200 80600 (2016) 40800 (2018) 55100 40800 42300 49400 73500 80600
2020-02-23 19:00 10.68 70200 80600 (2016) 40800 (2018) 55100 40800 42300 49400 73500 80600
2020-02-23 18:00 10.68 70200 80600 (2016) 40800 (2018) 55100 40800 42300 49400 73500 80600
2020-02-23 17:00 10.70 70300 80600 (2016) 40800 (2018) 55100 40800 42300 49400 73500 80600
2020-02-23 16:00 10.71 70400 80600 (2016) 40800 (2018) 55100 40800 42300 49400 73500 80600
2020-02-23 15:00 10.71 70400 80600 (2016) 40800 (2018) 55100 40800 42300 49400 73500 80600
2020-02-23 14:00 10.72 70500 80600 (2016) 40800 (2018) 55100 40800 42300 49400 73500 80600
2020-02-23 13:00 10.76 70700 80600 (2016) 40800 (2018) 55100 40800 42300 49400 73500 80600
2020-02-23 12:00 10.78 70900 80600 (2016) 40800 (2018) 55100 40800 42300 49400 73500 80600
2020-02-23 11:00 10.81 71100 80600 (2016) 40800 (2018) 55100 40800 42300 49400 73500 80600
2020-02-23 10:00 10.85 71400 80600 (2016) 40800 (2018) 55100 40800 42300 49400 73500 80600
2020-02-23 09:00 10.84 71300 80600 (2016) 40800 (2018) 55100 40800 42300 49400 73500 80600
2020-02-23 08:00 10.86 71500 80600 (2016) 40800 (2018) 55100 40800 42300 49400 73500 80600
2020-02-23 07:00 10.87 71500 80600 (2016) 40800 (2018) 55100 40800 42300 49400 73500 80600
2020-02-23 06:00 10.90 71800 80600 (2016) 40800 (2018) 55100 40800 42300 49400 73500 80600
2020-02-23 05:00 10.93 72000 80600 (2016) 40800 (2018) 55100 40800 42300 49400 73500 80600
2020-02-23 04:00 10.95 72100 80600 (2016) 40800 (2018) 55100 40800 42300 49400 73500 80600
2020-02-23 03:00 10.95 72100 80600 (2016) 40800 (2018) 55100 40800 42300 49400 73500 80600
2020-02-23 02:00 10.97 72300 80600 (2016) 40800 (2018) 55100 40800 42300 49400 73500 80600
2020-02-23 01:00 11.02 72600 80600 (2016) 40800 (2018) 55100 40800 42300 49400 73500 80600
2020-02-23 00:00 11.04 72800 80600 (2016) 40800 (2018) 55100 40800 42300 49400 73500 80600
2020-02-22 23:00 11.07 73000 75000 (2016) 39800 (2018) 52800 39800 41500 48200 68700 75000
2020-02-22 22:00 11.09 73200 75000 (2016) 39800 (2018) 52800 39800 41500 48200 68700 75000
2020-02-22 21:00 11.12 73400 75000 (2016) 39800 (2018) 52800 39800 41500 48200 68700 75000
2020-02-22 20:00 11.14 73500 75000 (2016) 39800 (2018) 52800 39800 41500 48200 68700 75000
2020-02-22 19:00 11.17 73800 75000 (2016) 39800 (2018) 52800 39800 41500 48200 68700 75000
2020-02-22 18:00 11.19 73900 75000 (2016) 39800 (2018) 52800 39800 41500 48200 68700 75000
2020-02-22 17:00 11.25 74400 75000 (2016) 39800 (2018) 52800 39800 41500 48200 68700 75000
2020-02-22 16:00 11.29 74700 75000 (2016) 39800 (2018) 52800 39800 41500 48200 68700 75000
2020-02-22 15:00 11.30 74700 75000 (2016) 39800 (2018) 52800 39800 41500 48200 68700 75000
2020-02-22 14:00 11.33 75000 75000 (2016) 39800 (2018) 52800 39800 41500 48200 68700 75000
2020-02-22 13:00 11.36 75200 75000 (2016) 39800 (2018) 52800 39800 41500 48200 68700 75000
2020-02-22 12:00 11.38 75300 75000 (2016) 39800 (2018) 52800 39800 41500 48200 68700 75000
2020-02-22 11:00 11.39 75400 75000 (2016) 39800 (2018) 52800 39800 41500 48200 68700 75000
2020-02-22 10:00 11.41 75600 75000 (2016) 39800 (2018) 52800 39800 41500 48200 68700 75000
2020-02-22 09:00 11.43 75700 75000 (2016) 39800 (2018) 52800 39800 41500 48200 68700 75000
2020-02-22 08:00 11.46 75900 75000 (2016) 39800 (2018) 52800 39800 41500 48200 68700 75000
2020-02-22 07:00 11.46 75900 75000 (2016) 39800 (2018) 52800 39800 41500 48200 68700 75000
2020-02-22 06:00 11.49 76200 75000 (2016) 39800 (2018) 52800 39800 41500 48200 68700 75000
2020-02-22 05:00 11.54 76600 75000 (2016) 39800 (2018) 52800 39800 41500 48200 68700 75000
2020-02-22 04:00 11.54 76600 75000 (2016) 39800 (2018) 52800 39800 41500 48200 68700 75000
2020-02-22 03:00 11.56 76700 75000 (2016) 39800 (2018) 52800 39800 41500 48200 68700 75000
2020-02-22 02:00 11.58 76900 75000 (2016) 39800 (2018) 52800 39800 41500 48200 68700 75000
2020-02-22 01:00 11.59 76900 75000 (2016) 39800 (2018) 52800 39800 41500 48200 68700 75000
2020-02-22 00:00 11.59 76900 75000 (2016) 39800 (2018) 52800 39800 41500 48200 68700 75000
2020-02-21 23:00 11.62 77200 63100 (2016) 39600 (2018) 49600 39600 41200 47900 59800 63100
2020-02-21 22:00 11.63 77200 63100 (2016) 39600 (2018) 49600 39600 41200 47900 59800 63100
2020-02-21 21:00 11.63 77200 63100 (2016) 39600 (2018) 49600 39600 41200 47900 59800 63100
2020-02-21 20:00 11.65 77400 63100 (2016) 39600 (2018) 49600 39600 41200 47900 59800 63100
2020-02-21 19:00 11.63 77200 63100 (2016) 39600 (2018) 49600 39600 41200 47900 59800 63100
2020-02-21 18:00 11.63 77200 63100 (2016) 39600 (2018) 49600 39600 41200 47900 59800 63100
2020-02-21 17:00 11.63 77200 63100 (2016) 39600 (2018) 49600 39600 41200 47900 59800 63100
2020-02-21 16:00 11.64 77300 63100 (2016) 39600 (2018) 49600 39600 41200 47900 59800 63100
2020-02-21 15:00 11.62 77200 63100 (2016) 39600 (2018) 49600 39600 41200 47900 59800 63100
2020-02-21 14:00 11.64 77300 63100 (2016) 39600 (2018) 49600 39600 41200 47900 59800 63100
2020-02-21 13:00 11.64 77300 63100 (2016) 39600 (2018) 49600 39600 41200 47900 59800 63100
2020-02-21 12:00 11.64 77300 63100 (2016) 39600 (2018) 49600 39600 41200 47900 59800 63100
2020-02-21 11:00 11.63 77200 63100 (2016) 39600 (2018) 49600 39600 41200 47900 59800 63100
2020-02-21 10:00 11.62 77200 63100 (2016) 39600 (2018) 49600 39600 41200 47900 59800 63100
2020-02-21 09:00 11.65 77400 63100 (2016) 39600 (2018) 49600 39600 41200 47900 59800 63100
2020-02-21 08:00 11.64 77300 63100 (2016) 39600 (2018) 49600 39600 41200 47900 59800 63100
2020-02-21 07:00 11.62 77200 63100 (2016) 39600 (2018) 49600 39600 41200 47900 59800 63100
2020-02-21 06:00 11.61 77100 63100 (2016) 39600 (2018) 49600 39600 41200 47900 59800 63100
2020-02-21 05:00 11.61 77100 63100 (2016) 39600 (2018) 49600 39600 41200 47900 59800 63100
2020-02-21 04:00 11.57 76800 63100 (2016) 39600 (2018) 49600 39600 41200 47900 59800 63100
2020-02-21 03:00 11.56 76700 63100 (2016) 39600 (2018) 49600 39600 41200 47900 59800 63100
2020-02-21 02:00 11.54 76600 63100 (2016) 39600 (2018) 49600 39600 41200 47900 59800 63100
2020-02-21 01:00 11.52 76400 63100 (2016) 39600 (2018) 49600 39600 41200 47900 59800 63100
2020-02-21 00:00 11.49 76200 63100 (2016) 39600 (2018) 49600 39600 41200 47900 59800 63100
2020-02-20 23:00 11.45 75900 59200 (2016) 38100 (2018) 48600 38100 40300 48500 57000 59200
2020-02-20 22:00 11.42 75600 59200 (2016) 38100 (2018) 48600 38100 40300 48500 57000 59200
2020-02-20 21:00 11.40 75500 59200 (2016) 38100 (2018) 48600 38100 40300 48500 57000 59200
2020-02-20 20:00 11.42 75600 59200 (2016) 38100 (2018) 48600 38100 40300 48500 57000 59200
2020-02-20 19:00 11.36 75200 59200 (2016) 38100 (2018) 48600 38100 40300 48500 57000 59200
2020-02-20 18:00 11.34 75000 59200 (2016) 38100 (2018) 48600 38100 40300 48500 57000 59200
2020-02-20 17:00 11.33 75000 59200 (2016) 38100 (2018) 48600 38100 40300 48500 57000 59200
2020-02-20 16:00 11.32 74900 59200 (2016) 38100 (2018) 48600 38100 40300 48500 57000 59200
2020-02-20 15:00 11.29 74700 59200 (2016) 38100 (2018) 48600 38100 40300 48500 57000 59200
2020-02-20 14:00 11.25 74400 59200 (2016) 38100 (2018) 48600 38100 40300 48500 57000 59200
2020-02-20 13:00 11.26 74400 59200 (2016) 38100 (2018) 48600 38100 40300 48500 57000 59200
2020-02-20 12:00 11.24 74300 59200 (2016) 38100 (2018) 48600 38100 40300 48500 57000 59200
2020-02-20 11:00 11.21 74100 59200 (2016) 38100 (2018) 48600 38100 40300 48500 57000 59200
2020-02-20 10:00 11.21 74100 59200 (2016) 38100 (2018) 48600 38100 40300 48500 57000 59200
2020-02-20 09:00 11.20 74000 59200 (2016) 38100 (2018) 48600 38100 40300 48500 57000 59200
2020-02-20 08:00 11.20 74000 59200 (2016) 38100 (2018) 48600 38100 40300 48500 57000 59200
2020-02-20 07:00 11.18 73800 59200 (2016) 38100 (2018) 48600 38100 40300 48500 57000 59200
2020-02-20 06:00 11.15 73600 59200 (2016) 38100 (2018) 48600 38100 40300 48500 57000 59200
2020-02-20 05:00 11.12 73400 59200 (2016) 38100 (2018) 48600 38100 40300 48500 57000 59200
2020-02-20 04:00 11.11 73300 59200 (2016) 38100 (2018) 48600 38100 40300 48500 57000 59200
2020-02-20 03:00 11.11 73300 59200 (2016) 38100 (2018) 48600 38100 40300 48500 57000 59200
2020-02-20 02:00 11.10 73200 59200 (2016) 38100 (2018) 48600 38100 40300 48500 57000 59200
2020-02-20 01:00 11.10 73200 59200 (2016) 38100 (2018) 48600 38100 40300 48500 57000 59200
2020-02-20 00:00 11.07 73000 59200 (2016) 38100 (2018) 48600 38100 40300 48500 57000 59200
2020-02-19 23:00 11.06 72900 54000 (2016) 36400 (2018) 47400 36400 39300 49500 53300 54000
2020-02-19 22:00 11.02 72600 54000 (2016) 36400 (2018) 47400 36400 39300 49500 53300 54000
2020-02-19 21:00 11.01 72600 54000 (2016) 36400 (2018) 47400 36400 39300 49500 53300 54000
2020-02-19 20:00 11.00 72500 54000 (2016) 36400 (2018) 47400 36400 39300 49500 53300 54000
2020-02-19 19:00 10.98 72300 54000 (2016) 36400 (2018) 47400 36400 39300 49500 53300 54000
2020-02-19 18:00 10.99 72400 54000 (2016) 36400 (2018) 47400 36400 39300 49500 53300 54000
2020-02-19 17:00 10.96 72200 54000 (2016) 36400 (2018) 47400 36400 39300 49500 53300 54000
2020-02-19 16:00 10.95 72100 54000 (2016) 36400 (2018) 47400 36400 39300 49500 53300 54000
2020-02-19 15:00 10.94 72100 54000 (2016) 36400 (2018) 47400 36400 39300 49500 53300 54000
2020-02-19 14:00 10.92 71900 54000 (2016) 36400 (2018) 47400 36400 39300 49500 53300 54000
2020-02-19 13:00 10.93 72000 54000 (2016) 36400 (2018) 47400 36400 39300 49500 53300 54000
2020-02-19 12:00 10.91 71800 54000 (2016) 36400 (2018) 47400 36400 39300 49500 53300 54000
2020-02-19 11:00 10.89 71700 54000 (2016) 36400 (2018) 47400 36400 39300 49500 53300 54000
2020-02-19 10:00 10.91 71800 54000 (2016) 36400 (2018) 47400 36400 39300 49500 53300 54000
2020-02-19 09:00 10.88 71600 54000 (2016) 36400 (2018) 47400 36400 39300 49500 53300 54000
2020-02-19 08:00 10.86 71500 54000 (2016) 36400 (2018) 47400 36400 39300 49500 53300 54000
2020-02-19 07:00 10.84 71300 54000 (2016) 36400 (2018) 47400 36400 39300 49500 53300 54000
2020-02-19 06:00 10.85 71400 54000 (2016) 36400 (2018) 47400 36400 39300 49500 53300 54000
2020-02-19 05:00 10.81 71100 54000 (2016) 36400 (2018) 47400 36400 39300 49500 53300 54000
2020-02-19 04:00 10.79 71000 54000 (2016) 36400 (2018) 47400 36400 39300 49500 53300 54000
2020-02-19 03:00 10.77 70800 54000 (2016) 36400 (2018) 47400 36400 39300 49500 53300 54000
2020-02-19 02:00 10.75 70700 54000 (2016) 36400 (2018) 47400 36400 39300 49500 53300 54000
2020-02-19 01:00 10.73 70500 54000 (2016) 36400 (2018) 47400 36400 39300 49500 53300 54000
2020-02-19 00:00 10.69 70200 54000 (2016) 36400 (2018) 47400 36400 39300 49500 53300 54000
2020-02-18 23:00 10.65 69900 51200 (2019) 35500 (2018) 45900 35500 38700 48400 50600 51200
2020-02-18 22:00 10.63 69800 51200 (2019) 35500 (2018) 45900 35500 38700 48400 50600 51200
2020-02-18 21:00 10.60 69600 51200 (2019) 35500 (2018) 45900 35500 38700 48400 50600 51200
2020-02-18 20:00 10.57 69400 51200 (2019) 35500 (2018) 45900 35500 38700 48400 50600 51200
2020-02-18 19:00 10.52 69000 51200 (2019) 35500 (2018) 45900 35500 38700 48400 50600 51200
2020-02-18 18:00 10.51 68900 51200 (2019) 35500 (2018) 45900 35500 38700 48400 50600 51200
2020-02-18 17:00 10.46 68600 51200 (2019) 35500 (2018) 45900 35500 38700 48400 50600 51200
2020-02-18 16:00 10.46 68600 51200 (2019) 35500 (2018) 45900 35500 38700 48400 50600 51200
2020-02-18 15:00 10.44 68400 51200 (2019) 35500 (2018) 45900 35500 38700 48400 50600 51200
2020-02-18 14:00 10.39 68100 51200 (2019) 35500 (2018) 45900 35500 38700 48400 50600 51200
2020-02-18 13:00 10.35 67800 51200 (2019) 35500 (2018) 45900 35500 38700 48400 50600 51200
2020-02-18 12:00 10.32 67600 51200 (2019) 35500 (2018) 45900 35500 38700 48400 50600 51200
2020-02-18 11:00 10.29 67400 51200 (2019) 35500 (2018) 45900 35500 38700 48400 50600 51200
2020-02-18 10:00 10.27 67300 51200 (2019) 35500 (2018) 45900 35500 38700 48400 50600 51200
2020-02-18 09:00 10.24 67000 51200 (2019) 35500 (2018) 45900 35500 38700 48400 50600 51200
2020-02-18 08:00 10.21 66800 51200 (2019) 35500 (2018) 45900 35500 38700 48400 50600 51200
2020-02-18 07:00 10.21 66800 51200 (2019) 35500 (2018) 45900 35500 38700 48400 50600 51200
2020-02-18 06:00 10.20 66800 51200 (2019) 35500 (2018) 45900 35500 38700 48400 50600 51200
2020-02-18 05:00 10.16 66500 51200 (2019) 35500 (2018) 45900 35500 38700 48400 50600 51200
2020-02-18 04:00 10.17 66600 51200 (2019) 35500 (2018) 45900 35500 38700 48400 50600 51200
2020-02-18 03:00 10.16 66500 51200 (2019) 35500 (2018) 45900 35500 38700 48400 50600 51200
2020-02-18 02:00 10.13 66300 51200 (2019) 35500 (2018) 45900 35500 38700 48400 50600 51200
2020-02-18 01:00 10.12 66200 51200 (2019) 35500 (2018) 45900 35500 38700 48400 50600 51200
2020-02-18 00:00 10.13 66300 51200 (2019) 35500 (2018) 45900 35500 38700 48400 50600 51200

A total of 189 rows are displayed for years 2016 through 2019.